Thursday, September 3, 2015, 2:48 AM EDT

KRDG, Reading Regional Airport

Location: Reading, PA, United States Lat: 40.367
Local Time: 2:48 AM EDT ( 6:48 GMT) Lon: -75.967
Time Zone: US/Eastern Elev: 344 ft

Show me the last for .
Show Decoded

2015-09-03 01:54 METAR KRDG 030554Z AUTO 00000KT 6SM BR CLR 21/19 A2991 RMK AO2 SLP128 T02110189
                 10272 20211 58007 =
2015-09-03 00:54 METAR KRDG 030454Z 00000KT 9SM CLR 23/19 A2992 RMK AO2 SLP134 T02280194
                 403220189 =
2015-09-02 23:54 METAR KRDG 030354Z 00000KT 9SM CLR 22/19 A2992 =
2015-09-02 22:54 METAR KRDG 030254Z 32003KT 10SM CLR 23/19 A2993 RMK AO2 SLP136 T02330189 53007 =
2015-09-02 21:54 METAR KRDG 030154Z 23004KT 10SM CLR 25/19 A2992 =
2015-09-02 20:54 METAR KRDG 030054Z 00000KT 10SM CLR 26/19 A2991 RMK AO2 SLP132 T02560189 =
2015-09-02 19:54 METAR KRDG 022354Z 30003KT 10SM CLR 27/18 A2990 RMK AO2 SLP129 T02720178 10322
                 20267 58006 =
2015-09-02 18:54 METAR KRDG 022254Z 26004KT 10SM CLR 29/17 A2991 =
2015-09-02 17:54 METAR KRDG 022154Z 26007KT 10SM CLR 31/17 A2992 =
2015-09-02 16:54 METAR KRDG 022054Z 27007KT 10SM FEW064 32/16 A2992 RMK AO2 SLP135 T03170161
                 56015 =
2015-09-02 15:54 METAR KRDG 021954Z AUTO 31004KT 10SM CLR 32/17 A2993 RMK AO2 SLP137 T03170172 =
2015-09-02 14:54 METAR KRDG 021854Z 31006KT 10SM FEW045 32/16 A2995 RMK AO2 SLP145 T03170161 =
2015-09-02 13:54 METAR KRDG 021754Z VRB04KT 10SM FEW052 32/18 A2997 RMK AO2 SLP151 T03170183
                 10317 20206 58018 =
2015-09-02 12:54 METAR KRDG 021654Z 27005KT 10SM CLR 30/19 A2999 RMK AO2 SLP158 T03000189 =
2015-09-02 11:54 METAR KRDG 021554Z 25005KT 10SM BR HZ CLR 29/19 A3001 RMK AO2 SLP166 T02940194 =
2015-09-02 10:54 METAR KRDG 021454Z 00000KT 10SM BR HZ CLR 28/19 A3002 RMK AO2 SLP169 T02780194
                 58010 =
2015-09-02 09:54 METAR KRDG 021354Z 00000KT 7SM BR HZ CLR 25/19 A3004 =
2015-09-02 08:54 METAR KRDG 021254Z 00000KT 4SM BR HZ CLR 22/19 A3005 RMK AO2 SLP177 T02220194 =
2015-09-02 07:54 METAR KRDG 021154Z 00000KT 4SM BR HZ CLR 21/18 A3005 RMK AO2 SLP179 T02060183
                 10211 20189 53009 =
2015-09-02 06:54 METAR KRDG 021054Z 00000KT 5SM BR CLR 19/17 A3004 RMK AO2 SLP176 T01890172 =
2015-09-02 05:54 METAR KRDG 020954Z AUTO 00000KT 7SM CLR 19/18 A3003 =
2015-09-02 04:54 METAR KRDG 020854Z AUTO 00000KT 6SM BR CLR 19/18 A3003 RMK AO2 SLP170 T01940178
                 58006 =
2015-09-02 03:54 METAR KRDG 020754Z AUTO 00000KT 4SM BR CLR 20/18 A3003 RMK AO2 SLP172 T02000183
                 =
2015-09-02 02:54 METAR KRDG 020654Z 00000KT 9SM CLR 21/18 A3004 =

Support USWX by starting your Amazon purchase here.